หน้าหลัก
METAR-TAF:

METAR-TAF

ท่าอากาศยาน :

RAF

Boulmer, อังกฤษ

ละติจูด: 55-25-19N, ลองจิจูด: 1-36-12W, ความสูง: 24 ม.

การสังเกตสภาพอากาศปัจจุบัน

รายงานได้ทำขึ้นเมื่อ 37 นาทีที่แล้ว ณ เวลา 02:50 UTC
ลม 4 นอตจากตะวันตก
อุณหภูมิ 7°C
ความชื้น 81%
ความกดอากาศ 1013 hPa
ทัศนวิสัย 10 กม. หรือมากกว่า

METAR: EGQM 130250Z AUTO 28004KT 9999 NCD 07/04 Q1013

เวลา: 04:27 (03:27 UTC)


TAF: หายไป

สังเกตการณ์สภาพอากาศและพยากรณ์อากาศของสนามบินมากกว่า 4000 แห่ง (รายงาน METAR และ TAF).

สถานีที่ดูได้จะแสดงไว้ด้วยจุดสีเหลืองและสีแดงบนแผนที่.

เลื่อนเมาส์ไปเหนือจุดเพื่อดูชื่อสถานี.

แล้วคลิกเพื่อดูสังเกตการณ์และการพยากรณ์สภาพอากาศ.

ในการเปลี่ยนแผนที่: คลิกที่ปุ่มสีเขียวที่มีกากบาทสีดำเพื่อซูมเข้า; ที่ปุ่มสีเขียวที่มีขีดเพื่อซูมออก; หรือที่ลูกศรสีเขียวเพื่อไปยังแผนที่ที่อยู่ติดกัน.


METAR-TAF: